aviador You're here:

ZSSS Decoded Metar

SHANGHAI in CHINA
Report Time2017-08-20 13:30:00
UTC Time2017-08-20 13:40:45
Flight Rules vfr VFR
Wind160° at 6 kt
W.Decomp.*RWY 18: 5.8 kt HW 1.6 kt LCW
W.Rank160° ranks 14
Current wind is below 160° avg. (7.5)
Visibility9999 m
Phenomena:N/A
Clouds:N/A
Expected CloudBase > 1,200 ft AGL from Temp-Dew spread
CeilingNone
Temp28°C (ISA +13)
Dew Point25°C (84% RH)
Heat Index32.7°C
QNH1006 hPa
Density Alt2,175 ft
Elevation23 ft
Report Wrong Elevation
Raw Report
METAR ZSSS 201330Z 16003MPS CAVOK 28/25 Q1006 NOSIG=

Extra information for ZSSS:More info

Metar Taf Metar & Taf Last 4 Metars F.Rules Stats Wind Profile Meteogram Temp Stats Airport Information Weather charts Add Link Nearby VenuesMetar ALERT Operation Metar Decoded Social comments